岡山グライダークラブ活動状況掲示板あなたは無料カウンター人目の訪問者です

岡山グライダークラブ
岡山市浦安南町639-1 岡南飛行場
 使用機:シャイベ式 SF25C型 ファルケ   JA2330
      ヴァレンティン式17E型 タイフーン  JA2342
 練習日:毎日曜日  クラブルーム:電話 086-265-1810
この掲示板は岡山グライダークラブの活動状況をお知らせする掲示板です。
!!!この掲示板は投稿規制をしています。!!!
クラブ関連各種情報は 岡山グライダークラブクラブルーム      を       .
  ブリーフイング情報は  岡山グライダークラブブリーフィングルーム  をご覧下さい。 .
※写真はクリックすると拡大して見ることが出来ます。
岡南飛行場へのアクセス等は 岡南飛行場管理事務所 をご覧ください。
クラブの ホームページ ができました。

 
10月04日
by OGC at 2020/10/4(日) 19:56:02 No.20201004195109  削除コメント
1024 x 768 x 70,090バイト
No.1

10月04日
本日の参加者
  会員      15名
  その他      0名


@本日の様子






METAR
RJBK 040000Z VRB02KT 08KM FEW032CU SCT060SC BKN120AC 22/19 Q1013 A2992
RJOB 040000Z 10004KT 9000 FEW020 SCT035 BKN100 20/18 Q1014
RJOT 040000Z 14004KT 100V170 9999 FEW025 BKN080 BKN100 22/19 Q1013
RJOA 040000Z 12003KT 5000 BCFG BR FEW000 SCT015 BKN080 20/19 Q1014
TAF
RJOB 032307Z 0400/0506 18004KT 9999 FEW020 SCT045
RJOT 032305Z 0400/0506 05005KT 9999 FEW025 BKN060
     BECMG 0412/0415 24005KT
RJOA 032309Z 0400/0506 15004KT 9999 FEW025
     BECMG 0412/0415 26006KT
     BECMG 0418/0421 32011KT

本日は曇りで風も穏やかで、みんな、離着陸訓練を行っていました。


解散    17:50

1番機  10:30離陸 撤収機  17:10着陸 

SF25C JA2330 ファルケ     10Flt.3h50min  
17E   JA2342 タイフーン    00Flt.0h00min  
合計                    10Flt.3h50min

    << 戻る || ホームページ || 最新の掲示板へ